Time;durP1;ratioP1;P1;durP2;ratioP2;P2;SDS_P1;SDS_P2;PMS_P1;PMS_P2;Temp;Humidity;BMP_temperature;BMP_pressure;BME280_temperature;BME280_humidity;BME280_pressure;Samples;Min_cycle;Max_cycle;Signal;HPM_P1;HPM_P2
2022/05/11 00:01:32;;;;;;;9.67;8.80;;;17.20;99.90;;;;;;5094315;28;20605;-73
2022/05/11 00:04:00;;;;;;;9.77;8.87;;;17.20;99.90;;;;;;5094834;28;20611;-73
2022/05/11 00:06:28;;;;;;;9.00;8.20;;;17.20;99.90;;;;;;5073031;28;20670;-72
2022/05/11 00:08:56;;;;;;;8.73;7.83;;;17.20;99.90;;;;;;5073807;28;20602;-73
2022/05/11 00:11:26;;;;;;;9.80;8.97;;;17.20;99.90;;;;;;5074347;28;20634;-72
2022/05/11 00:13:53;;;;;;;8.97;8.37;;;17.20;99.90;;;;;;5074853;28;21091;-75
2022/05/11 00:16:19;;;;;;;9.67;8.67;;;17.20;99.90;;;;;;5075127;28;20603;-73
2022/05/11 00:18:46;;;;;;;13.00;8.57;;;17.20;99.90;;;;;;5073574;28;20671;-73
2022/05/11 00:21:12;;;;;;;13.33;8.70;;;17.10;99.90;;;;;;5074432;28;20602;-74
2022/05/11 00:23:39;;;;;;;10.17;9.37;;;17.00;99.90;;;;;;5074674;28;20613;-73
2022/05/11 00:26:06;;;;;;;9.13;8.40;;;17.00;99.90;;;;;;5074745;28;20600;-73
2022/05/11 00:28:33;;;;;;;8.93;8.23;;;16.90;99.90;;;;;;5073907;28;20672;-73
2022/05/11 00:31:00;;;;;;;9.23;8.10;;;16.90;99.90;;;;;;5074477;28;20603;-73
2022/05/11 00:33:26;;;;;;;9.77;8.90;;;16.80;99.90;;;;;;5074444;28;20613;-72
2022/05/11 00:35:53;;;;;;;10.30;9.40;;;16.80;99.90;;;;;;5072603;28;20664;-73
2022/05/11 00:38:22;;;;;;;8.83;8.13;;;16.70;99.90;;;;;;5072547;28;20614;-73
2022/05/11 00:40:57;;;;;;;10.57;9.77;;;16.70;99.90;;;;;;5074142;28;20585;-73
2022/05/11 00:43:28;;;;;;;10.10;9.20;;;16.80;99.90;;;;;;5073198;28;21023;-73
2022/05/11 00:46:13;;;;;;;9.77;8.80;;;16.80;99.90;;;;;;5073994;28;20763;-73
2022/05/11 00:51:33;;;;;;;9.97;9.17;;;16.70;99.90;;;;;;5074159;28;20682;-73
2022/05/11 00:54:02;;;;;;;10.13;9.43;;;16.70;99.90;;;;;;5073782;28;20653;-74
2022/05/11 00:56:29;;;;;;;10.37;9.47;;;16.70;99.90;;;;;;5072837;28;20613;-74
2022/05/11 00:59:01;;;;;;;10.50;9.40;;;16.60;99.90;;;;;;5074446;28;20622;-74
2022/05/11 01:01:27;;;;;;;10.43;9.60;;;16.60;99.90;;;;;;5074749;28;20574;-75
2022/05/11 01:04:05;;;;;;;11.20;10.03;;;16.60;99.90;;;;;;5073878;28;20955;-75
2022/05/11 01:06:33;;;;;;;12.77;10.07;;;16.70;99.90;;;;;;5082326;28;20722;-75
2022/05/11 01:09:01;;;;;;;10.83;9.93;;;16.70;99.90;;;;;;5094398;28;20605;-74
2022/05/11 01:11:29;;;;;;;11.13;10.10;;;16.70;99.90;;;;;;5094319;28;20572;-74
2022/05/11 01:13:57;;;;;;;9.90;9.10;;;16.60;99.90;;;;;;5092802;28;20970;-73
2022/05/11 01:16:25;;;;;;;10.80;9.87;;;16.60;99.90;;;;;;5059363;28;20605;-73
2022/05/11 01:18:52;;;;;;;10.40;9.40;;;16.60;99.90;;;;;;5075880;28;20610;-73
2022/05/11 01:21:18;;;;;;;13.83;9.47;;;16.60;99.90;;;;;;5075817;28;20965;-74
2022/05/11 01:24:00;;;;;;;10.17;9.27;;;16.50;99.90;;;;;;5075209;28;21027;-74
2022/05/11 01:26:31;;;;;;;9.83;9.00;;;16.50;99.90;;;;;;5093314;28;20623;-73
2022/05/11 01:28:57;;;;;;;11.70;10.47;;;16.40;99.90;;;;;;5093602;28;20901;-74
2022/05/11 01:31:24;;;;;;;11.17;10.27;;;16.40;99.90;;;;;;5093793;28;20612;-73
2022/05/11 01:33:51;;;;;;;10.50;9.40;;;16.40;99.90;;;;;;5093571;28;20622;-74
2022/05/11 01:36:31;;;;;;;11.23;10.23;;;16.30;99.90;;;;;;5093650;28;20572;-74
2022/05/11 01:39:03;;;;;;;10.50;9.70;;;16.30;99.90;;;;;;5092675;28;20628;-73
2022/05/11 01:41:33;;;;;;;13.03;10.40;;;16.30;99.90;;;;;;5093446;28;20601;-74
2022/05/11 01:44:02;;;;;;;11.40;10.47;;;16.20;99.90;;;;;;5092500;28;20635;-74
2022/05/11 01:46:30;;;;;;;10.87;9.97;;;16.30;99.90;;;;;;5093215;28;20613;-74
2022/05/11 01:48:57;;;;;;;10.73;9.63;;;16.20;99.90;;;;;;5093417;28;20601;-74
2022/05/11 01:51:23;;;;;;;11.10;10.10;;;16.30;99.90;;;;;;5093032;28;20606;-74
2022/05/11 01:53:50;;;;;;;10.07;9.07;;;16.20;99.90;;;;;;5093738;28;20690;-74
2022/05/11 01:56:19;;;;;;;13.67;10.17;;;16.20;99.90;;;;;;5092880;28;20613;-73
2022/05/11 01:58:47;;;;;;;11.17;10.07;;;16.10;99.90;;;;;;5093577;28;20588;-74
2022/05/11 02:01:19;;;;;;;11.27;10.10;;;16.10;99.90;;;;;;5076009;28;20611;-74
2022/05/11 02:03:47;;;;;;;12.33;10.37;;;16.20;99.90;;;;;;5094132;28;20979;-74
2022/05/11 02:08:58;;;;;;;10.23;9.33;;;16.10;99.90;;;;;;5093295;28;20584;-73
2022/05/11 02:11:25;;;;;;;10.93;9.90;;;16.10;99.90;;;;;;5074938;28;20655;-73
2022/05/11 02:13:51;;;;;;;10.57;9.67;;;16.10;99.90;;;;;;5093143;28;20640;-73
2022/05/11 02:16:17;;;;;;;11.00;10.10;;;16.10;99.90;;;;;;5058242;28;20617;-74
2022/05/11 02:18:44;;;;;;;12.30;11.20;;;16.10;99.90;;;;;;5093227;28;20617;-73
2022/05/11 02:21:11;;;;;;;12.00;10.70;;;16.10;99.90;;;;;;5093197;28;21221;-74
2022/05/11 02:23:38;;;;;;;11.33;10.30;;;16.10;99.90;;;;;;5093194;28;20619;-74
2022/05/11 02:26:08;;;;;;;10.90;9.93;;;16.00;99.90;;;;;;5097325;28;20604;-73
2022/05/11 02:28:34;;;;;;;11.37;10.20;;;16.00;99.90;;;;;;5096566;28;20613;-73
2022/05/11 02:31:01;;;;;;;11.80;10.67;;;16.00;99.90;;;;;;5077631;28;20591;-73
2022/05/11 02:33:27;;;;;;;11.77;10.63;;;16.00;99.90;;;;;;5078335;28;20595;-73
2022/05/11 02:35:54;;;;;;;10.73;9.83;;;16.00;99.90;;;;;;5097043;28;20649;-73
2022/05/11 02:38:26;;;;;;;14.20;10.53;;;16.00;99.90;;;;;;5097004;28;20612;-73
2022/05/11 02:40:53;;;;;;;13.30;10.00;;;16.00;99.90;;;;;;5078619;28;20573;-73
2022/05/11 02:43:20;;;;;;;12.03;11.00;;;16.00;99.90;;;;;;5077640;28;20666;-73
2022/05/11 02:45:48;;;;;;;11.13;10.20;;;16.00;99.90;;;;;;5098041;28;20621;-74
2022/05/11 02:48:19;;;;;;;10.67;9.67;;;16.00;99.90;;;;;;5097394;28;20605;-73
2022/05/11 02:50:51;;;;;;;10.83;10.03;;;16.00;99.90;;;;;;5096762;28;20986;-74
2022/05/11 02:53:19;;;;;;;10.30;9.40;;;15.90;99.90;;;;;;5097030;28;20955;-74
2022/05/11 02:55:48;;;;;;;17.50;9.60;;;15.90;99.90;;;;;;5097379;28;20652;-73
2022/05/11 02:58:18;;;;;;;10.77;9.77;;;15.80;99.90;;;;;;5097903;28;20669;-73
2022/05/11 03:00:46;;;;;;;10.30;9.50;;;15.80;99.90;;;;;;5097818;28;20625;-73
2022/05/11 03:03:14;;;;;;;11.40;10.40;;;15.70;99.90;;;;;;5080255;28;20575;-73
2022/05/11 03:05:42;;;;;;;18.23;11.80;;;15.70;99.90;;;;;;5096091;28;20682;-72
2022/05/11 03:08:08;;;;;;;11.63;10.50;;;15.70;99.90;;;;;;5096590;28;20589;-73
2022/05/11 03:10:37;;;;;;;10.43;9.63;;;15.60;99.90;;;;;;5078768;28;20587;-73
2022/05/11 03:13:04;;;;;;;10.73;9.83;;;15.60;99.90;;;;;;5097734;28;20716;-74
2022/05/11 03:15:31;;;;;;;11.63;9.90;;;15.60;99.90;;;;;;5097653;28;20642;-73
2022/05/11 03:17:58;;;;;;;11.30;10.40;;;15.50;99.90;;;;;;5081429;28;20944;-74
2022/05/11 03:20:26;;;;;;;10.80;9.90;;;15.40;99.90;;;;;;5097573;28;21152;-74
2022/05/11 03:22:54;;;;;;;11.40;10.23;;;15.40;99.90;;;;;;5097764;28;20606;-74
2022/05/11 03:25:21;;;;;;;12.87;10.83;;;15.40;99.90;;;;;;5098042;28;20715;-74
2022/05/11 03:27:49;;;;;;;13.13;11.23;;;15.40;99.90;;;;;;5097139;28;20629;-73
2022/05/11 03:30:15;;;;;;;11.27;10.20;;;15.40;99.90;;;;;;5096206;28;20613;-72
2022/05/11 03:35:27;;;;;;;11.57;10.47;;;15.30;99.90;;;;;;5095987;28;20670;-73
2022/05/11 03:37:54;;;;;;;11.53;10.60;;;15.40;99.90;;;;;;5096278;28;20584;-73
2022/05/11 03:40:20;;;;;;;10.87;9.93;;;15.40;99.90;;;;;;5097266;28;20628;-72
2022/05/11 03:42:47;;;;;;;10.87;9.83;;;15.30;99.90;;;;;;5078254;28;20621;-73
2022/05/11 03:45:23;;;;;;;11.43;10.33;;;15.30;99.90;;;;;;5095484;28;20632;-73
2022/05/11 03:47:49;;;;;;;10.90;9.87;;;15.40;99.90;;;;;;5095756;28;20632;-74
2022/05/11 03:50:19;;;;;;;11.17;10.20;;;15.40;99.90;;;;;;5077193;28;21186;-73
2022/05/11 03:52:46;;;;;;;12.70;11.50;;;15.40;99.90;;;;;;5095063;28;20614;-73
2022/05/11 03:55:14;;;;;;;12.37;11.27;;;15.40;99.90;;;;;;5077434;28;21257;-73
2022/05/11 03:57:41;;;;;;;13.13;9.97;;;15.50;99.90;;;;;;5095562;28;20601;-74
2022/05/11 04:00:14;;;;;;;11.87;10.67;;;15.50;99.90;;;;;;5095417;28;20613;-73
2022/05/11 04:02:42;;;;;;;15.87;9.70;;;15.60;99.90;;;;;;5096768;28;20577;-72
2022/05/11 04:05:11;;;;;;;15.20;11.13;;;15.60;99.90;;;;;;5097316;28;21236;-73
2022/05/11 04:07:37;;;;;;;11.53;10.43;;;15.60;99.90;;;;;;5097495;28;21064;-74
2022/05/11 04:10:05;;;;;;;12.37;10.83;;;15.60;99.90;;;;;;5097776;28;20641;-74
2022/05/11 04:12:31;;;;;;;12.20;11.00;;;15.60;99.90;;;;;;5097028;28;21144;-74
2022/05/11 04:14:58;;;;;;;11.37;10.27;;;15.70;99.90;;;;;;5096851;28;20656;-74
2022/05/11 04:17:25;;;;;;;21.30;10.10;;;15.70;99.90;;;;;;5096632;28;20609;-74
2022/05/11 04:19:52;;;;;;;11.07;9.97;;;15.80;99.90;;;;;;5096646;28;20599;-73
2022/05/11 04:22:18;;;;;;;10.73;9.80;;;15.80;99.90;;;;;;5096026;28;20626;-74
2022/05/11 04:24:45;;;;;;;10.33;9.43;;;15.90;99.90;;;;;;5096473;28;20637;-74
2022/05/11 04:27:11;;;;;;;10.30;9.50;;;15.90;99.90;;;;;;5095961;28;20584;-74
2022/05/11 04:29:39;;;;;;;11.17;10.20;;;16.00;99.90;;;;;;5096016;28;20628;-74
2022/05/11 04:32:07;;;;;;;11.03;10.13;;;15.90;99.90;;;;;;5097971;28;20913;-74
2022/05/11 04:34:34;;;;;;;11.10;10.07;;;16.00;99.90;;;;;;5077962;28;20621;-73
2022/05/11 04:37:01;;;;;;;10.80;9.90;;;16.00;99.90;;;;;;5077418;28;20609;-73
2022/05/11 04:39:27;;;;;;;11.23;10.23;;;16.00;99.90;;;;;;5095358;28;20588;-73
2022/05/11 04:41:54;;;;;;;13.27;10.53;;;16.00;99.90;;;;;;5095565;28;20669;-73
2022/05/11 04:44:20;;;;;;;10.53;9.63;;;16.00;99.90;;;;;;5077004;28;20621;-73
2022/05/11 04:46:47;;;;;;;10.90;9.80;;;16.10;99.90;;;;;;5095143;28;20975;-73
2022/05/11 04:49:16;;;;;;;10.43;9.43;;;16.10;99.90;;;;;;5094572;28;20599;-74
2022/05/11 04:51:43;;;;;;;11.67;10.47;;;16.10;99.90;;;;;;5095202;28;20675;-73
2022/05/11 04:54:11;;;;;;;11.27;10.30;;;16.20;99.90;;;;;;5095829;28;20609;-73
2022/05/11 04:56:38;;;;;;;11.40;10.50;;;16.20;99.90;;;;;;5094499;28;20656;-73
2022/05/11 04:59:05;;;;;;;19.00;10.63;;;16.20;99.90;;;;;;5076313;28;20588;-73
2022/05/11 05:01:33;;;;;;;11.10;10.10;;;16.20;99.90;;;;;;5095949;28;20617;-75
2022/05/11 05:03:59;;;;;;;11.47;10.50;;;16.30;99.90;;;;;;5077341;28;20987;-74
2022/05/11 05:06:27;;;;;;;11.73;10.63;;;16.30;99.90;;;;;;5095089;28;20653;-73
2022/05/11 05:08:55;;;;;;;10.40;9.60;;;16.40;99.90;;;;;;5095279;28;20644;-73
2022/05/11 05:11:22;;;;;;;12.30;10.57;;;16.40;99.90;;;;;;5076244;28;21053;-73
2022/05/11 05:13:49;;;;;;;10.67;8.33;;;16.50;99.90;;;;;;5059156;28;20620;-73
2022/05/11 05:16:15;;;;;;;11.47;10.37;;;16.50;99.90;;;;;;5094384;28;20656;-73
2022/05/11 05:18:41;;;;;;;12.43;9.30;;;16.60;99.90;;;;;;5095987;28;20678;-73
2022/05/11 05:21:08;;;;;;;10.47;9.50;;;16.60;99.90;;;;;;5095208;28;20613;-73
2022/05/11 05:23:35;;;;;;;12.07;10.97;;;16.70;99.90;;;;;;5095323;28;20596;-73
2022/05/11 05:26:02;;;;;;;11.33;10.33;;;16.80;99.90;;;;;;5094106;28;20625;-73
2022/05/11 05:31:17;;;;;;;10.67;9.57;;;16.80;99.90;;;;;;5095253;28;20578;-73
2022/05/11 05:33:44;;;;;;;10.50;9.50;;;16.90;99.90;;;;;;5094144;28;20617;-73
2022/05/11 05:36:11;;;;;;;9.90;8.90;;;17.00;99.90;;;;;;5075466;28;21045;-73
2022/05/11 05:38:38;;;;;;;9.93;9.00;;;17.00;99.90;;;;;;5093370;28;20695;-74
2022/05/11 05:41:09;;;;;;;10.10;9.10;;;17.10;99.90;;;;;;5093953;28;20726;-81
2022/05/11 05:43:36;;;;;;;10.10;9.20;;;17.20;99.90;;;;;;5074894;28;20203;-75
2022/05/11 05:46:03;;;;;;;8.73;8.03;;;17.30;99.90;;;;;;5075208;28;20617;-74
2022/05/11 05:48:30;;;;;;;10.93;9.83;;;17.40;99.90;;;;;;5094187;28;20609;-75
2022/05/11 05:51:08;;;;;;;9.70;8.90;;;17.40;99.90;;;;;;5093816;28;20621;-75
2022/05/11 05:53:35;;;;;;;9.43;8.70;;;17.40;99.90;;;;;;5092998;28;20613;-75
2022/05/11 05:56:02;;;;;;;10.60;9.70;;;17.50;99.90;;;;;;5093348;28;20697;-75
2022/05/11 05:58:29;;;;;;;12.00;8.73;;;17.70;99.90;;;;;;5093338;28;20608;-75
2022/05/11 06:00:56;;;;;;;13.40;9.57;;;17.80;99.90;;;;;;5097884;28;20617;-76
2022/05/11 06:03:32;;;;;;;10.50;9.57;;;17.80;99.90;;;;;;5096910;28;20601;-74
2022/05/11 06:05:59;;;;;;;10.07;8.87;;;17.90;99.90;;;;;;5096509;28;20656;-74
2022/05/11 06:08:25;;;;;;;9.40;8.57;;;18.10;99.90;;;;;;5096551;28;20966;-74
2022/05/11 06:10:55;;;;;;;10.00;9.10;;;18.20;99.90;;;;;;5097076;28;20617;-74
2022/05/11 06:13:22;;;;;;;8.70;7.73;;;18.10;99.90;;;;;;5096948;28;20742;-74
2022/05/11 06:15:54;;;;;;;8.57;7.87;;;18.30;99.90;;;;;;5096829;28;20690;-73
2022/05/11 06:18:22;;;;;;;8.53;7.73;;;18.50;99.90;;;;;;5097254;28;20610;-73
2022/05/11 06:20:51;;;;;;;9.20;8.30;;;18.50;99.90;;;;;;5098705;28;20692;-73
2022/05/11 06:23:19;;;;;;;8.40;7.43;;;18.60;99.90;;;;;;5097348;28;20610;-73
2022/05/11 06:25:49;;;;;;;9.07;8.37;;;18.70;99.90;;;;;;5096511;28;20616;-73
2022/05/11 06:28:16;;;;;;;9.60;7.43;;;18.90;99.90;;;;;;5096416;28;20628;-73
2022/05/11 06:30:42;;;;;;;8.87;8.17;;;19.00;99.90;;;;;;5096517;28;20730;-73
2022/05/11 06:33:09;;;;;;;8.70;7.53;;;18.90;99.90;;;;;;5096719;28;21193;-73
2022/05/11 06:35:35;;;;;;;7.90;7.30;;;19.10;99.90;;;;;;5077851;28;21299;-73
2022/05/11 06:38:08;;;;;;;8.37;7.67;;;19.30;99.90;;;;;;5078813;28;20597;-73
2022/05/11 06:40:35;;;;;;;7.70;7.10;;;19.20;99.90;;;;;;5096108;28;20621;-72
2022/05/11 06:43:02;;;;;;;8.10;7.30;;;19.40;99.90;;;;;;5096117;28;20605;-73
2022/05/11 06:45:28;;;;;;;9.17;8.30;;;19.50;99.90;;;;;;5095577;28;20625;-72
2022/05/11 06:47:55;;;;;;;10.80;7.40;;;19.60;99.90;;;;;;5096067;28;20605;-73
2022/05/11 06:50:24;;;;;;;7.70;7.07;;;19.70;99.90;;;;;;5096003;28;21194;-73
2022/05/11 06:52:51;;;;;;;13.07;7.77;;;19.70;99.90;;;;;;5095205;28;20609;-74
2022/05/11 07:00:48;;;;;;;7.60;6.80;;;19.80;99.90;;;;;;5095820;28;20586;-73
2022/05/11 07:03:15;;;;;;;8.03;7.23;;;19.80;99.90;;;;;;5096039;28;20623;-74
2022/05/11 07:05:43;;;;;;;7.93;6.90;;;20.10;99.90;;;;;;5096002;28;20710;-73
2022/05/11 07:08:10;;;;;;;7.73;7.00;;;19.90;99.90;;;;;;5095552;28;20640;-73
2022/05/11 07:10:38;;;;;;;6.83;6.43;;;20.10;99.90;;;;;;5094845;28;20729;-72
2022/05/11 07:13:05;;;;;;;8.30;7.60;;;20.20;99.90;;;;;;5095474;28;20606;-73
2022/05/11 07:15:32;;;;;;;7.00;6.50;;;20.20;99.90;;;;;;5095235;28;21245;-72
2022/05/11 07:17:59;;;;;;;7.97;7.40;;;20.30;99.90;;;;;;5095590;28;20601;-72
2022/05/11 07:20:36;;;;;;;7.27;6.10;;;20.50;99.90;;;;;;5095963;28;20661;-73
2022/05/11 07:23:04;;;;;;;8.10;7.30;;;20.70;99.90;;;;;;5095522;28;21186;-72
2022/05/11 07:25:31;;;;;;;8.23;7.53;;;20.80;99.90;;;;;;5096140;28;21166;-73
2022/05/11 07:27:59;;;;;;;7.63;6.90;;;20.80;99.90;;;;;;5095704;28;20620;-73
2022/05/11 07:30:32;;;;;;;8.47;7.77;;;21.00;99.90;;;;;;5077947;28;20621;-73
2022/05/11 07:33:00;;;;;;;7.93;7.30;;;21.10;99.90;;;;;;5095370;28;20586;-73
2022/05/11 07:35:28;;;;;;;8.30;7.33;;;21.20;99.90;;;;;;5077468;28;20656;-73
2022/05/11 07:37:54;;;;;;;7.40;6.73;;;21.50;99.90;;;;;;5094952;28;21195;-73
2022/05/11 07:40:23;;;;;;;7.70;7.00;;;21.60;99.90;;;;;;5094701;28;20609;-73
2022/05/11 07:42:50;;;;;;;7.17;6.47;;;21.70;99.90;;;;;;5095202;28;20601;-73
2022/05/11 07:45:18;;;;;;;8.57;6.77;;;21.70;99.90;;;;;;5094688;28;20632;-73
2022/05/11 07:47:44;;;;;;;7.50;6.80;;;21.80;99.90;;;;;;5094762;28;20605;-74
2022/05/11 07:50:13;;;;;;;7.63;6.93;;;21.80;99.90;;;;;;5094217;28;20636;-73
2022/05/11 07:52:44;;;;;;;8.67;6.67;;;21.70;99.90;;;;;;5094253;28;20617;-74
2022/05/11 07:55:11;;;;;;;7.33;6.63;;;21.80;99.90;;;;;;5094405;28;20605;-73
2022/05/11 08:00:31;;;;;;;7.47;6.87;;;22.20;99.90;;;;;;5095306;28;20600;-74
2022/05/11 08:02:58;;;;;;;6.83;6.20;;;22.30;99.90;;;;;;5077475;28;20678;-73
2022/05/11 08:05:25;;;;;;;8.37;6.80;;;22.50;99.90;;;;;;5094879;28;20637;-73
2022/05/11 08:07:55;;;;;;;7.10;6.50;;;22.30;99.90;;;;;;5094250;28;20662;-74
2022/05/11 08:10:29;;;;;;;6.10;5.70;;;22.30;99.90;;;;;;5094608;28;20638;-72
2022/05/11 08:12:55;;;;;;;6.33;5.90;;;22.30;99.90;;;;;;5094018;28;20636;-73
2022/05/11 08:15:25;;;;;;;8.33;7.40;;;22.40;99.90;;;;;;5094398;28;20606;-72
2022/05/11 08:17:52;;;;;;;10.90;6.33;;;22.60;99.90;;;;;;5094430;28;20606;-72
2022/05/11 08:20:26;;;;;;;7.00;6.40;;;22.60;99.90;;;;;;5093871;28;20617;-72
2022/05/11 08:22:52;;;;;;;9.17;7.33;;;22.80;99.90;;;;;;5094158;28;21135;-72
2022/05/11 08:25:22;;;;;;;7.23;6.73;;;22.80;99.90;;;;;;5075618;28;20623;-73
2022/05/11 08:27:49;;;;;;;8.87;6.53;;;23.20;99.90;;;;;;5094373;28;20605;-75
2022/05/11 08:35:52;;;;;;;7.47;6.87;;;23.30;99.90;;;;;;5093763;28;20605;-72
2022/05/11 08:38:21;;;;;;;6.93;6.43;;;23.30;99.90;;;;;;5094190;28;20572;-72
2022/05/11 08:40:57;;;;;;;10.47;7.50;;;23.50;99.90;;;;;;5094046;28;20654;-72
2022/05/11 08:43:28;;;;;;;7.63;6.97;;;23.80;99.90;;;;;;5094005;28;20573;-73
2022/05/11 08:46:22;;;;;;;7.00;6.47;;;23.80;99.90;;;;;;5093231;28;20636;-72
2022/05/11 08:48:59;;;;;;;6.90;6.23;;;23.90;99.90;;;;;;5094155;28;20964;-73
2022/05/11 08:51:45;;;;;;;7.57;6.30;;;23.90;99.90;;;;;;5095519;28;20581;-73
2022/05/11 08:54:22;;;;;;;6.93;6.43;;;24.20;99.90;;;;;;5093186;28;20609;-72
2022/05/11 08:56:49;;;;;;;7.30;6.70;;;24.20;99.90;;;;;;5093400;28;21022;-72
2022/05/11 08:59:26;;;;;;;6.87;6.10;;;24.40;99.90;;;;;;5093564;28;20999;-73
2022/05/11 09:01:59;;;;;;;6.83;6.13;;;24.30;99.90;;;;;;5093479;28;21262;-72
2022/05/11 09:04:51;;;;;;;7.87;6.80;;;24.50;99.90;;;;;;5093316;28;20590;-72
2022/05/11 09:07:18;;;;;;;6.67;6.20;;;24.80;99.90;;;;;;5092621;28;20657;-73
2022/05/11 09:09:45;;;;;;;6.90;6.30;;;24.70;99.90;;;;;;5092821;28;20617;-72
2022/05/11 09:12:13;;;;;;;8.53;5.33;;;24.70;99.90;;;;;;5093515;28;20677;-73
2022/05/11 09:14:56;;;;;;;8.30;6.70;;;24.80;99.90;;;;;;5092575;28;20614;-72
2022/05/11 09:17:28;;;;;;;6.30;5.80;;;24.70;99.90;;;;;;5093689;28;20629;-72
2022/05/11 09:20:20;;;;;;;10.93;5.80;;;25.00;99.90;;;;;;5093208;28;20597;-72
2022/05/11 09:22:53;;;;;;;13.23;6.10;;;25.50;99.90;;;;;;5093069;28;20625;-73
2022/05/11 09:25:24;;;;;;;5.40;5.00;;;25.20;99.90;;;;;;5093166;28;21031;-73
2022/05/11 09:27:52;;;;;;;16.10;5.20;;;25.50;99.90;;;;;;5092982;28;20577;-73
2022/05/11 09:30:25;;;;;;;15.23;6.00;;;25.80;99.90;;;;;;5075114;28;20629;-73
2022/05/11 09:33:11;;;;;;;6.43;5.17;;;25.40;99.90;;;;;;5093020;28;21131;-74
2022/05/11 09:35:39;;;;;;;5.87;5.37;;;25.50;99.90;;;;;;5093147;28;20581;-73
2022/05/11 09:38:10;;;;;;;6.60;5.60;;;25.90;99.90;;;;;;5093282;28;20962;-73
2022/05/11 09:40:56;;;;;;;5.40;5.10;;;25.90;99.90;;;;;;5074973;28;20626;-73
2022/05/11 09:43:38;;;;;;;6.67;5.73;;;25.70;99.90;;;;;;5093407;28;20618;-77
2022/05/11 09:46:21;;;;;;;5.43;4.93;;;26.20;99.90;;;;;;5096456;28;20578;-79
2022/05/11 09:49:24;;;;;;;8.37;5.40;;;26.20;99.90;;;;;;5095978;28;20569;-79
2022/05/11 09:51:56;;;;;;;5.60;4.97;;;26.00;99.90;;;;;;5094775;28;20617;-74
2022/05/11 09:54:48;;;;;;;6.37;5.33;;;26.00;99.90;;;;;;5092667;28;20582;-74
2022/05/11 09:57:27;;;;;;;8.23;5.90;;;26.30;99.90;;;;;;5092728;28;20695;-73
2022/05/11 10:00:13;;;;;;;6.23;4.90;;;26.50;99.90;;;;;;5093005;28;20670;-73
2022/05/11 10:02:45;;;;;;;5.60;5.20;;;26.80;99.90;;;;;;5092599;28;20805;-73
2022/05/11 10:05:24;;;;;;;7.37;5.37;;;26.50;99.90;;;;;;5092743;28;20641;-74
2022/05/11 10:08:12;;;;;;;5.50;5.10;;;26.70;99.90;;;;;;5092320;28;20637;-73
2022/05/11 10:10:43;;;;;;;5.67;5.37;;;26.90;99.90;;;;;;5092816;28;20973;-74
2022/05/11 10:13:40;;;;;;;5.00;4.60;;;26.80;99.90;;;;;;5092440;28;21035;-74
2022/05/11 10:22:25;;;;;;;8.50;4.70;;;26.70;99.90;;;;;;5092285;28;20606;-74
2022/05/11 10:25:16;;;;;;;4.73;4.50;;;27.40;99.90;;;;;;5091679;28;20700;-73
2022/05/11 10:27:46;;;;;;;4.87;4.53;;;27.10;99.90;;;;;;5091994;28;20617;-72
2022/05/11 10:30:24;;;;;;;4.93;4.53;;;27.10;99.90;;;;;;5093875;28;20678;-74
2022/05/11 10:32:53;;;;;;;5.17;4.87;;;27.10;99.90;;;;;;5092904;28;20589;-73
2022/05/11 10:35:56;;;;;;;4.67;4.47;;;27.00;99.90;;;;;;5093478;28;21262;-74
2022/05/11 10:38:50;;;;;;;4.83;4.53;;;26.90;99.90;;;;;;5037499;28;20609;-73
2022/05/11 10:41:35;;;;;;;5.40;5.07;;;27.20;99.90;;;;;;5092148;28;21112;-73
2022/05/11 10:44:07;;;;;;;4.93;4.63;;;27.40;99.90;;;;;;5091575;28;20609;-73
2022/05/11 10:46:55;;;;;;;5.83;5.40;;;27.70;99.90;;;;;;5093841;28;20953;-73
2022/05/11 10:49:30;;;;;;;10.70;5.57;;;27.70;99.90;;;;;;5095247;28;20613;-73
2022/05/11 10:52:08;;;;;;;5.00;4.40;;;27.40;99.90;;;;;;5095309;28;20617;-73
2022/05/11 10:54:54;;;;;;;6.10;4.63;;;27.50;99.90;;;;;;5077212;28;21248;-73
2022/05/11 10:57:38;;;;;;;10.97;5.73;;;27.50;99.90;;;;;;5095842;28;20640;-73
2022/05/11 11:00:08;;;;;;;5.57;5.07;;;27.60;99.90;;;;;;5094951;28;20609;-73
2022/05/11 11:03:07;;;;;;;4.83;4.63;;;27.60;99.90;;;;;;5095913;28;20669;-73
2022/05/11 11:07:11;;;;;;;5.17;4.77;;;28.00;99.90;;;;;;5056590;28;21008;-73
2022/05/11 11:09:02;;;;;;;5.87;5.37;;;28.10;99.90;;;;;;5095554;28;20656;-73
2022/05/11 11:11:37;;;;;;;5.43;5.13;;;27.40;99.90;;;;;;5095328;28;20678;-73
2022/05/11 11:14:09;;;;;;;5.57;5.17;;;28.20;99.90;;;;;;5095521;28;20598;-73
2022/05/11 11:16:39;;;;;;;5.43;4.97;;;28.60;99.90;;;;;;5095660;28;20632;-73
2022/05/11 11:19:08;;;;;;;5.23;4.83;;;29.20;99.90;;;;;;5095583;28;20594;-73
2022/05/11 11:21:40;;;;;;;5.57;5.07;;;28.70;99.90;;;;;;5095403;28;20597;-73
2022/05/11 11:24:23;;;;;;;6.00;5.50;;;28.60;99.90;;;;;;5095160;28;20581;-73
2022/05/11 11:26:57;;;;;;;5.57;5.20;;;28.70;99.90;;;;;;5095318;28;20597;-73
2022/05/11 11:29:36;;;;;;;5.60;5.20;;;28.80;99.90;;;;;;5094305;28;20613;-74
2022/05/11 11:32:21;;;;;;;5.13;4.83;;;28.40;99.90;;;;;;5094795;28;20629;-73
2022/05/11 11:35:11;;;;;;;5.43;5.00;;;28.50;99.90;;;;;;5095555;28;20648;-72
2022/05/11 11:37:41;;;;;;;7.63;4.80;;;28.60;99.90;;;;;;5095541;28;20672;-73
2022/05/11 11:40:14;;;;;;;5.37;5.17;;;28.60;99.90;;;;;;5095286;28;20636;-74
2022/05/11 11:42:43;;;;;;;6.00;5.60;;;28.80;99.90;;;;;;5095384;28;21268;-74
2022/05/11 11:45:31;;;;;;;4.87;4.47;;;29.40;99.90;;;;;;5095552;28;20601;-72
2022/05/11 11:48:05;;;;;;;5.80;5.40;;;29.80;99.90;;;;;;5094934;28;20620;-73
2022/05/11 11:50:53;;;;;;;6.03;5.53;;;29.80;99.90;;;;;;5095508;28;20578;-73
2022/05/11 11:53:54;;;;;;;6.73;6.10;;;29.80;99.90;;;;;;5094490;28;20621;-73
2022/05/11 11:56:24;;;;;;;5.57;5.07;;;29.70;99.90;;;;;;5094379;28;20657;-73
2022/05/11 11:59:30;;;;;;;6.20;5.63;;;29.90;99.90;;;;;;5095329;28;20674;-73
2022/05/11 12:02:22;;;;;;;7.37;5.40;;;29.70;99.90;;;;;;5095278;28;20577;-72
2022/05/11 12:04:58;;;;;;;5.30;4.90;;;30.00;99.90;;;;;;5081740;28;20644;-72
2022/05/11 12:16:20;;;;;;;6.97;5.93;;;29.90;99.90;;;;;;5094942;28;20655;-73
2022/05/11 12:18:47;;;;;;;5.90;5.60;;;30.80;99.90;;;;;;5094784;28;20971;-73
2022/05/11 12:21:35;;;;;;;4.97;4.37;;;31.20;99.90;;;;;;5059681;28;20625;-75
2022/05/11 12:24:05;;;;;;;4.60;4.30;;;30.80;99.90;;;;;;5094940;28;21207;-73
2022/05/11 12:26:35;;;;;;;5.40;4.90;;;30.30;99.90;;;;;;5094369;28;20573;-73
2022/05/11 12:32:00;;;;;;;7.27;4.10;;;30.10;99.90;;;;;;5094973;28;20624;-73
2022/05/11 12:34:29;;;;;;;4.47;4.17;;;30.60;99.90;;;;;;5094779;28;20604;-73
2022/05/11 12:36:57;;;;;;;4.03;3.83;;;30.60;99.90;;;;;;5075838;28;20661;-73
2022/05/11 12:39:35;;;;;;;10.90;4.50;;;30.70;99.90;;;;;;5094667;28;20593;-74
2022/05/11 12:42:03;;;;;;;6.43;4.37;;;31.70;99.90;;;;;;5094814;28;20931;-74
2022/05/11 12:44:34;;;;;;;6.67;3.93;;;31.20;99.90;;;;;;5094184;28;21027;-74
2022/05/11 12:47:03;;;;;;;6.20;4.40;;;31.60;99.90;;;;;;5076287;28;20623;-74
2022/05/11 12:49:30;;;;;;;3.90;3.60;;;32.10;99.90;;;;;;5094632;28;20597;-73
2022/05/11 12:52:05;;;;;;;8.03;4.20;;;31.30;99.90;;;;;;5093755;28;20629;-74
2022/05/11 12:54:32;;;;;;;4.47;4.17;;;31.30;99.90;;;;;;5094733;28;20613;-74
2022/05/11 12:57:08;;;;;;;3.70;3.50;;;31.60;99.90;;;;;;5094756;28;20656;-73
2022/05/11 12:59:35;;;;;;;5.60;3.73;;;31.30;99.90;;;;;;5094475;28;20674;-73
2022/05/11 13:02:14;;;;;;;4.23;4.00;;;30.50;99.90;;;;;;5077001;28;20658;-73
2022/05/11 13:04:53;;;;;;;7.83;3.43;;;30.60;99.90;;;;;;5095037;28;20613;-73
2022/05/11 13:07:43;;;;;;;3.77;3.43;;;31.20;99.90;;;;;;5094571;28;20660;-73
2022/05/11 13:10:16;;;;;;;7.87;3.83;;;31.10;99.90;;;;;;5094149;28;20645;-73
2022/05/11 13:12:49;;;;;;;4.50;3.17;;;31.40;99.90;;;;;;5095387;28;20628;-73
2022/05/11 13:15:33;;;;;;;6.37;3.90;;;31.30;99.90;;;;;;5095005;28;20585;-73
2022/05/11 13:18:00;;;;;;;3.97;3.67;;;32.00;99.90;;;;;;5094969;28;20640;-73
2022/05/11 13:20:28;;;;;;;4.60;4.30;;;31.50;99.90;;;;;;5095095;28;20940;-74
2022/05/11 13:23:00;;;;;;;3.73;3.53;;;31.20;99.90;;;;;;5095203;28;20609;-74
2022/05/11 13:25:47;;;;;;;7.73;3.67;;;31.20;99.90;;;;;;5076502;28;20594;-73
2022/05/11 13:28:22;;;;;;;4.07;3.50;;;31.40;99.90;;;;;;5094567;28;20609;-74
2022/05/11 13:30:50;;;;;;;5.93;3.80;;;31.30;99.90;;;;;;5093747;28;20629;-73
2022/05/11 13:33:42;;;;;;;3.90;3.70;;;31.40;99.90;;;;;;5094337;28;20612;-72
2022/05/11 13:36:28;;;;;;;8.63;4.00;;;31.40;99.90;;;;;;5094182;28;20644;-72
2022/05/11 13:39:19;;;;;;;4.17;3.70;;;31.90;99.90;;;;;;5094233;28;20712;-73
2022/05/11 13:41:45;;;;;;;4.17;3.83;;;30.90;99.90;;;;;;5076402;28;20624;-73
2022/05/11 13:44:31;;;;;;;6.70;4.00;;;31.00;99.90;;;;;;5095093;28;20609;-72
2022/05/11 13:49:46;;;;;;;4.77;3.80;;;31.70;99.90;;;;;;5093633;28;20939;-73